sensor_id;sensor_type;location;lat;lon;timestamp;temperature;humidity
46608;DHT22;32330;51.936;7.184;2023-08-06T00:01:36;15.30;99.90
46608;DHT22;32330;51.936;7.184;2023-08-06T00:04:03;15.30;99.90
46608;DHT22;32330;51.936;7.184;2023-08-06T00:06:30;15.30;99.90
46608;DHT22;32330;51.936;7.184;2023-08-06T00:08:57;15.30;99.90
46608;DHT22;32330;51.936;7.184;2023-08-06T00:11:24;15.30;99.90
46608;DHT22;32330;51.936;7.184;2023-08-06T00:13:51;15.30;99.90
46608;DHT22;32330;51.936;7.184;2023-08-06T00:16:19;15.30;99.90
46608;DHT22;32330;51.936;7.184;2023-08-06T00:18:46;15.30;99.90
46608;DHT22;32330;51.936;7.184;2023-08-06T00:21:13;15.30;99.90
46608;DHT22;32330;51.936;7.184;2023-08-06T00:23:40;15.30;99.90
46608;DHT22;32330;51.936;7.184;2023-08-06T00:26:07;15.30;99.90
46608;DHT22;32330;51.936;7.184;2023-08-06T00:28:34;15.30;99.90
46608;DHT22;32330;51.936;7.184;2023-08-06T00:31:01;15.30;99.90
46608;DHT22;32330;51.936;7.184;2023-08-06T00:33:30;15.30;99.90
46608;DHT22;32330;51.936;7.184;2023-08-06T00:35:57;15.30;99.90
46608;DHT22;32330;51.936;7.184;2023-08-06T00:38:24;15.30;99.90
46608;DHT22;32330;51.936;7.184;2023-08-06T00:40:53;15.30;99.90
46608;DHT22;32330;51.936;7.184;2023-08-06T00:43:20;15.30;99.90
46608;DHT22;32330;51.936;7.184;2023-08-06T00:45:47;15.30;99.90
46608;DHT22;32330;51.936;7.184;2023-08-06T00:48:14;15.40;99.90
46608;DHT22;32330;51.936;7.184;2023-08-06T00:50:43;15.30;99.90
46608;DHT22;32330;51.936;7.184;2023-08-06T00:53:10;15.30;99.90
46608;DHT22;32330;51.936;7.184;2023-08-06T00:55:37;15.40;99.90
46608;DHT22;32330;51.936;7.184;2023-08-06T00:58:04;15.40;99.90
46608;DHT22;32330;51.936;7.184;2023-08-06T01:00:31;15.40;99.90
46608;DHT22;32330;51.936;7.184;2023-08-06T01:02:59;15.40;99.90
46608;DHT22;32330;51.936;7.184;2023-08-06T01:05:26;15.50;99.90
46608;DHT22;32330;51.936;7.184;2023-08-06T01:08:06;15.50;99.90
46608;DHT22;32330;51.936;7.184;2023-08-06T01:10:46;15.40;99.90
46608;DHT22;32330;51.936;7.184;2023-08-06T01:13:22;15.40;99.90
46608;DHT22;32330;51.936;7.184;2023-08-06T01:15:54;15.50;99.90
46608;DHT22;32330;51.936;7.184;2023-08-06T01:18:23;15.50;99.90
46608;DHT22;32330;51.936;7.184;2023-08-06T01:20:51;15.50;99.90
46608;DHT22;32330;51.936;7.184;2023-08-06T01:23:18;15.50;99.90
46608;DHT22;32330;51.936;7.184;2023-08-06T01:25:51;15.50;99.90
46608;DHT22;32330;51.936;7.184;2023-08-06T01:28:30;15.50;99.90
46608;DHT22;32330;51.936;7.184;2023-08-06T01:31:02;15.50;99.90
46608;DHT22;32330;51.936;7.184;2023-08-06T01:33:32;15.50;99.90
46608;DHT22;32330;51.936;7.184;2023-08-06T01:36:01;15.50;99.90
46608;DHT22;32330;51.936;7.184;2023-08-06T01:38:28;15.50;99.90
46608;DHT22;32330;51.936;7.184;2023-08-06T01:40:55;15.50;99.90
46608;DHT22;32330;51.936;7.184;2023-08-06T01:43:22;15.50;99.90
46608;DHT22;32330;51.936;7.184;2023-08-06T01:45:49;15.50;99.90
46608;DHT22;32330;51.936;7.184;2023-08-06T01:48:15;15.50;99.90
46608;DHT22;32330;51.936;7.184;2023-08-06T01:50:43;15.50;99.90
46608;DHT22;32330;51.936;7.184;2023-08-06T01:53:11;15.40;99.90
46608;DHT22;32330;51.936;7.184;2023-08-06T01:55:38;15.40;99.90
46608;DHT22;32330;51.936;7.184;2023-08-06T01:58:05;15.40;99.90
46608;DHT22;32330;51.936;7.184;2023-08-06T02:00:32;15.40;99.90
46608;DHT22;32330;51.936;7.184;2023-08-06T02:02:59;15.30;99.90
46608;DHT22;32330;51.936;7.184;2023-08-06T02:05:26;15.30;99.90
46608;DHT22;32330;51.936;7.184;2023-08-06T02:07:53;15.30;99.90
46608;DHT22;32330;51.936;7.184;2023-08-06T02:10:21;15.30;99.90
46608;DHT22;32330;51.936;7.184;2023-08-06T02:12:48;15.30;99.90
46608;DHT22;32330;51.936;7.184;2023-08-06T02:15:16;15.30;99.90
46608;DHT22;32330;51.936;7.184;2023-08-06T02:17:43;15.30;99.90
46608;DHT22;32330;51.936;7.184;2023-08-06T02:20:10;15.30;99.90
46608;DHT22;32330;51.936;7.184;2023-08-06T02:22:37;15.30;99.90
46608;DHT22;32330;51.936;7.184;2023-08-06T02:25:05;15.30;99.90
46608;DHT22;32330;51.936;7.184;2023-08-06T02:27:33;15.30;99.90
46608;DHT22;32330;51.936;7.184;2023-08-06T02:30:00;15.30;99.90
46608;DHT22;32330;51.936;7.184;2023-08-06T02:32:29;15.30;99.90
46608;DHT22;32330;51.936;7.184;2023-08-06T02:34:59;15.30;99.90
46608;DHT22;32330;51.936;7.184;2023-08-06T02:37:26;15.30;99.90
46608;DHT22;32330;51.936;7.184;2023-08-06T02:39:53;15.40;99.90
46608;DHT22;32330;51.936;7.184;2023-08-06T02:42:20;15.30;99.90
46608;DHT22;32330;51.936;7.184;2023-08-06T02:44:48;15.30;99.90
46608;DHT22;32330;51.936;7.184;2023-08-06T02:47:15;15.30;99.90
46608;DHT22;32330;51.936;7.184;2023-08-06T02:49:43;15.30;99.90
46608;DHT22;32330;51.936;7.184;2023-08-06T02:52:10;15.30;99.90
46608;DHT22;32330;51.936;7.184;2023-08-06T02:54:37;15.30;99.90
46608;DHT22;32330;51.936;7.184;2023-08-06T02:57:05;15.30;99.90
46608;DHT22;32330;51.936;7.184;2023-08-06T02:59:34;15.30;99.90
46608;DHT22;32330;51.936;7.184;2023-08-06T03:02:07;15.30;99.90
46608;DHT22;32330;51.936;7.184;2023-08-06T03:04:43;15.30;99.90
46608;DHT22;32330;51.936;7.184;2023-08-06T03:07:11;15.30;99.90
46608;DHT22;32330;51.936;7.184;2023-08-06T03:09:51;15.30;99.90
46608;DHT22;32330;51.936;7.184;2023-08-06T03:12:19;15.30;99.90
46608;DHT22;32330;51.936;7.184;2023-08-06T03:14:47;15.30;99.90
46608;DHT22;32330;51.936;7.184;2023-08-06T03:17:16;15.30;99.90
46608;DHT22;32330;51.936;7.184;2023-08-06T03:19:43;15.30;99.90
46608;DHT22;32330;51.936;7.184;2023-08-06T03:22:11;15.30;99.90
46608;DHT22;32330;51.936;7.184;2023-08-06T03:24:39;15.30;99.90
46608;DHT22;32330;51.936;7.184;2023-08-06T03:27:07;15.30;99.90
46608;DHT22;32330;51.936;7.184;2023-08-06T03:29:36;15.30;99.90
46608;DHT22;32330;51.936;7.184;2023-08-06T03:32:03;15.30;99.90
46608;DHT22;32330;51.936;7.184;2023-08-06T03:34:31;15.30;99.90
46608;DHT22;32330;51.936;7.184;2023-08-06T03:36:58;15.20;99.90
46608;DHT22;32330;51.936;7.184;2023-08-06T03:39:26;15.20;99.90
46608;DHT22;32330;51.936;7.184;2023-08-06T03:41:54;15.20;99.90
46608;DHT22;32330;51.936;7.184;2023-08-06T03:44:21;15.20;99.90
46608;DHT22;32330;51.936;7.184;2023-08-06T03:46:48;15.20;99.90
46608;DHT22;32330;51.936;7.184;2023-08-06T03:49:15;15.20;99.90
46608;DHT22;32330;51.936;7.184;2023-08-06T03:51:43;15.20;99.90
46608;DHT22;32330;51.936;7.184;2023-08-06T03:54:10;15.20;99.90
46608;DHT22;32330;51.936;7.184;2023-08-06T03:56:37;15.20;99.90
46608;DHT22;32330;51.936;7.184;2023-08-06T03:59:04;15.20;99.90
46608;DHT22;32330;51.936;7.184;2023-08-06T04:01:31;15.20;99.90
46608;DHT22;32330;51.936;7.184;2023-08-06T04:03:58;15.20;99.90
46608;DHT22;32330;51.936;7.184;2023-08-06T04:06:25;15.20;99.90
46608;DHT22;32330;51.936;7.184;2023-08-06T04:08:54;15.30;99.90
46608;DHT22;32330;51.936;7.184;2023-08-06T04:11:20;15.20;99.90
46608;DHT22;32330;51.936;7.184;2023-08-06T04:13:48;15.20;99.90
46608;DHT22;32330;51.936;7.184;2023-08-06T04:16:15;15.20;99.90
46608;DHT22;32330;51.936;7.184;2023-08-06T04:18:42;15.20;99.90
46608;DHT22;32330;51.936;7.184;2023-08-06T04:21:09;15.20;99.90
46608;DHT22;32330;51.936;7.184;2023-08-06T04:23:36;15.20;99.90
46608;DHT22;32330;51.936;7.184;2023-08-06T04:26:07;15.20;99.90
46608;DHT22;32330;51.936;7.184;2023-08-06T04:28:35;15.20;99.90
46608;DHT22;32330;51.936;7.184;2023-08-06T04:31:02;15.30;99.90
46608;DHT22;32330;51.936;7.184;2023-08-06T04:33:32;15.30;99.90
46608;DHT22;32330;51.936;7.184;2023-08-06T04:36:03;15.30;99.90
46608;DHT22;32330;51.936;7.184;2023-08-06T04:38:30;15.30;99.90
46608;DHT22;32330;51.936;7.184;2023-08-06T04:40:58;15.30;99.90
46608;DHT22;32330;51.936;7.184;2023-08-06T04:43:26;15.30;99.90
46608;DHT22;32330;51.936;7.184;2023-08-06T04:45:54;15.30;99.90
46608;DHT22;32330;51.936;7.184;2023-08-06T04:48:21;15.30;99.90
46608;DHT22;32330;51.936;7.184;2023-08-06T04:50:49;15.40;99.90
46608;DHT22;32330;51.936;7.184;2023-08-06T04:53:17;15.30;99.90
46608;DHT22;32330;51.936;7.184;2023-08-06T04:55:44;15.40;99.90
46608;DHT22;32330;51.936;7.184;2023-08-06T04:58:12;15.40;99.90
46608;DHT22;32330;51.936;7.184;2023-08-06T05:00:40;15.30;99.90
46608;DHT22;32330;51.936;7.184;2023-08-06T05:03:07;15.30;99.90
46608;DHT22;32330;51.936;7.184;2023-08-06T05:05:34;15.40;99.90
46608;DHT22;32330;51.936;7.184;2023-08-06T05:08:01;15.40;99.90
46608;DHT22;32330;51.936;7.184;2023-08-06T05:10:28;15.40;99.90
46608;DHT22;32330;51.936;7.184;2023-08-06T05:12:55;15.40;99.90
46608;DHT22;32330;51.936;7.184;2023-08-06T05:15:22;15.40;99.90
46608;DHT22;32330;51.936;7.184;2023-08-06T05:17:52;15.50;99.90
46608;DHT22;32330;51.936;7.184;2023-08-06T05:20:20;15.50;99.90
46608;DHT22;32330;51.936;7.184;2023-08-06T05:22:47;15.50;99.90
46608;DHT22;32330;51.936;7.184;2023-08-06T05:25:15;15.50;99.90
46608;DHT22;32330;51.936;7.184;2023-08-06T05:27:42;15.60;99.90
46608;DHT22;32330;51.936;7.184;2023-08-06T05:30:10;15.60;99.90
46608;DHT22;32330;51.936;7.184;2023-08-06T05:32:37;15.70;99.90
46608;DHT22;32330;51.936;7.184;2023-08-06T05:35:06;15.70;99.90
46608;DHT22;32330;51.936;7.184;2023-08-06T05:37:33;15.70;99.90
46608;DHT22;32330;51.936;7.184;2023-08-06T05:40:00;15.80;99.90
46608;DHT22;32330;51.936;7.184;2023-08-06T05:42:27;15.80;99.90
46608;DHT22;32330;51.936;7.184;2023-08-06T05:44:55;15.90;99.90
46608;DHT22;32330;51.936;7.184;2023-08-06T05:47:22;16.00;99.90
46608;DHT22;32330;51.936;7.184;2023-08-06T05:49:49;16.00;99.90
46608;DHT22;32330;51.936;7.184;2023-08-06T05:52:17;16.10;99.90
46608;DHT22;32330;51.936;7.184;2023-08-06T05:54:44;16.10;99.90
46608;DHT22;32330;51.936;7.184;2023-08-06T05:57:11;16.20;99.90
46608;DHT22;32330;51.936;7.184;2023-08-06T05:59:39;16.30;99.90
46608;DHT22;32330;51.936;7.184;2023-08-06T06:02:06;16.30;99.90
46608;DHT22;32330;51.936;7.184;2023-08-06T06:04:34;16.40;99.90
46608;DHT22;32330;51.936;7.184;2023-08-06T06:07:01;16.40;99.90
46608;DHT22;32330;51.936;7.184;2023-08-06T06:09:29;16.40;99.90
46608;DHT22;32330;51.936;7.184;2023-08-06T06:11:56;16.40;99.90
46608;DHT22;32330;51.936;7.184;2023-08-06T06:14:23;16.50;99.90
46608;DHT22;32330;51.936;7.184;2023-08-06T06:16:50;16.60;99.90
46608;DHT22;32330;51.936;7.184;2023-08-06T06:19:19;16.60;99.90
46608;DHT22;32330;51.936;7.184;2023-08-06T06:21:46;16.70;99.90
46608;DHT22;32330;51.936;7.184;2023-08-06T06:24:13;16.70;99.90
46608;DHT22;32330;51.936;7.184;2023-08-06T06:26:41;16.80;99.90
46608;DHT22;32330;51.936;7.184;2023-08-06T06:29:08;16.80;99.90
46608;DHT22;32330;51.936;7.184;2023-08-06T06:31:35;16.90;99.90
46608;DHT22;32330;51.936;7.184;2023-08-06T06:34:02;17.00;99.90
46608;DHT22;32330;51.936;7.184;2023-08-06T06:36:29;16.90;99.90
46608;DHT22;32330;51.936;7.184;2023-08-06T06:38:55;16.90;99.90
46608;DHT22;32330;51.936;7.184;2023-08-06T06:41:22;17.00;99.90
46608;DHT22;32330;51.936;7.184;2023-08-06T06:43:51;17.10;99.90
46608;DHT22;32330;51.936;7.184;2023-08-06T06:46:18;17.10;99.90
46608;DHT22;32330;51.936;7.184;2023-08-06T06:48:45;17.20;99.90
46608;DHT22;32330;51.936;7.184;2023-08-06T06:51:12;17.30;99.90
46608;DHT22;32330;51.936;7.184;2023-08-06T06:53:38;17.40;99.90
46608;DHT22;32330;51.936;7.184;2023-08-06T06:56:06;17.40;99.90
46608;DHT22;32330;51.936;7.184;2023-08-06T06:58:33;17.50;99.90
46608;DHT22;32330;51.936;7.184;2023-08-06T07:01:01;17.60;99.90
46608;DHT22;32330;51.936;7.184;2023-08-06T07:03:28;17.90;99.90
46608;DHT22;32330;51.936;7.184;2023-08-06T07:05:58;18.10;99.90
46608;DHT22;32330;51.936;7.184;2023-08-06T07:08:25;18.10;99.90
46608;DHT22;32330;51.936;7.184;2023-08-06T07:10:59;18.10;99.90
46608;DHT22;32330;51.936;7.184;2023-08-06T07:13:28;18.00;99.40
46608;DHT22;32330;51.936;7.184;2023-08-06T07:15:55;18.10;99.90
46608;DHT22;32330;51.936;7.184;2023-08-06T07:18:24;18.30;99.70
46608;DHT22;32330;51.936;7.184;2023-08-06T07:20:51;18.40;99.90
46608;DHT22;32330;51.936;7.184;2023-08-06T07:23:20;18.30;94.70
46608;DHT22;32330;51.936;7.184;2023-08-06T07:25:47;18.50;99.90
46608;DHT22;32330;51.936;7.184;2023-08-06T07:28:14;18.50;94.50
46608;DHT22;32330;51.936;7.184;2023-08-06T07:30:42;18.60;96.30
46608;DHT22;32330;51.936;7.184;2023-08-06T07:33:09;18.60;99.10
46608;DHT22;32330;51.936;7.184;2023-08-06T07:35:38;18.60;92.80
46608;DHT22;32330;51.936;7.184;2023-08-06T07:38:05;18.60;94.70
46608;DHT22;32330;51.936;7.184;2023-08-06T07:40:32;18.50;94.30
46608;DHT22;32330;51.936;7.184;2023-08-06T07:42:59;18.50;95.50
46608;DHT22;32330;51.936;7.184;2023-08-06T07:45:26;18.50;96.90
46608;DHT22;32330;51.936;7.184;2023-08-06T07:47:53;18.50;96.00
46608;DHT22;32330;51.936;7.184;2023-08-06T07:50:20;18.40;92.00
46608;DHT22;32330;51.936;7.184;2023-08-06T07:52:49;18.40;95.90
46608;DHT22;32330;51.936;7.184;2023-08-06T07:55:16;18.50;95.80
46608;DHT22;32330;51.936;7.184;2023-08-06T07:57:43;18.50;92.90
46608;DHT22;32330;51.936;7.184;2023-08-06T08:00:10;18.50;97.10
46608;DHT22;32330;51.936;7.184;2023-08-06T08:02:40;18.60;92.40
46608;DHT22;32330;51.936;7.184;2023-08-06T08:05:08;18.60;93.30
46608;DHT22;32330;51.936;7.184;2023-08-06T08:07:35;18.80;94.40
46608;DHT22;32330;51.936;7.184;2023-08-06T08:10:03;18.80;86.50
46608;DHT22;32330;51.936;7.184;2023-08-06T08:12:30;18.90;85.20
46608;DHT22;32330;51.936;7.184;2023-08-06T08:14:57;18.90;71.50
46608;DHT22;32330;51.936;7.184;2023-08-06T08:17:25;19.10;76.80
46608;DHT22;32330;51.936;7.184;2023-08-06T08:19:52;19.20;70.10
46608;DHT22;32330;51.936;7.184;2023-08-06T08:22:19;19.20;73.70
46608;DHT22;32330;51.936;7.184;2023-08-06T08:24:45;19.40;68.90
46608;DHT22;32330;51.936;7.184;2023-08-06T08:27:14;19.50;79.00
46608;DHT22;32330;51.936;7.184;2023-08-06T08:29:41;19.60;59.40
46608;DHT22;32330;51.936;7.184;2023-08-06T08:32:07;19.60;51.60
46608;DHT22;32330;51.936;7.184;2023-08-06T08:34:35;19.50;51.40
46608;DHT22;32330;51.936;7.184;2023-08-06T08:37:02;19.60;45.90
46608;DHT22;32330;51.936;7.184;2023-08-06T08:39:31;19.70;54.90
46608;DHT22;32330;51.936;7.184;2023-08-06T08:41:58;19.50;59.30
46608;DHT22;32330;51.936;7.184;2023-08-06T08:44:28;19.50;61.20
46608;DHT22;32330;51.936;7.184;2023-08-06T08:46:56;19.50;62.80
46608;DHT22;32330;51.936;7.184;2023-08-06T08:49:24;19.50;62.10
46608;DHT22;32330;51.936;7.184;2023-08-06T08:51:53;19.60;51.20
46608;DHT22;32330;51.936;7.184;2023-08-06T08:54:23;19.60;57.20
46608;DHT22;32330;51.936;7.184;2023-08-06T08:56:50;19.80;64.10
46608;DHT22;32330;51.936;7.184;2023-08-06T08:59:17;19.90;69.30
46608;DHT22;32330;51.936;7.184;2023-08-06T09:01:47;20.00;56.20
46608;DHT22;32330;51.936;7.184;2023-08-06T09:04:17;20.00;58.70
46608;DHT22;32330;51.936;7.184;2023-08-06T09:06:46;20.00;59.10
46608;DHT22;32330;51.936;7.184;2023-08-06T09:09:16;20.20;47.20
46608;DHT22;32330;51.936;7.184;2023-08-06T09:11:44;20.30;53.60
46608;DHT22;32330;51.936;7.184;2023-08-06T09:14:12;20.00;36.90
46608;DHT22;32330;51.936;7.184;2023-08-06T09:16:38;20.00;33.10
46608;DHT22;32330;51.936;7.184;2023-08-06T09:19:11;20.20;46.00
46608;DHT22;32330;51.936;7.184;2023-08-06T09:22:38;20.20;40.20
46608;DHT22;32330;51.936;7.184;2023-08-06T09:25:40;20.40;43.50
46608;DHT22;32330;51.936;7.184;2023-08-06T09:28:08;20.20;35.10
46608;DHT22;32330;51.936;7.184;2023-08-06T09:30:36;20.20;48.60
46608;DHT22;32330;51.936;7.184;2023-08-06T09:33:08;20.20;29.30
46608;DHT22;32330;51.936;7.184;2023-08-06T09:35:42;20.20;45.60
46608;DHT22;32330;51.936;7.184;2023-08-06T09:38:10;20.40;50.60
46608;DHT22;32330;51.936;7.184;2023-08-06T09:40:38;20.50;46.70
46608;DHT22;32330;51.936;7.184;2023-08-06T09:43:05;20.50;25.80
46608;DHT22;32330;51.936;7.184;2023-08-06T09:46:00;20.70;52.00
46608;DHT22;32330;51.936;7.184;2023-08-06T09:48:47;20.50;22.60
46608;DHT22;32330;51.936;7.184;2023-08-06T09:51:16;20.50;22.00
46608;DHT22;32330;51.936;7.184;2023-08-06T09:53:44;20.40;28.70
46608;DHT22;32330;51.936;7.184;2023-08-06T09:56:12;20.50;20.90
46608;DHT22;32330;51.936;7.184;2023-08-06T09:58:41;20.70;37.20
46608;DHT22;32330;51.936;7.184;2023-08-06T10:01:08;20.90;4.90
46608;DHT22;32330;51.936;7.184;2023-08-06T10:03:36;20.90;1.00
46608;DHT22;32330;51.936;7.184;2023-08-06T10:06:05;21.00;29.50
46608;DHT22;32330;51.936;7.184;2023-08-06T10:08:35;21.10;7.40
46608;DHT22;32330;51.936;7.184;2023-08-06T10:11:04;21.30;6.80
46608;DHT22;32330;51.936;7.184;2023-08-06T10:13:32;21.50;1.00
46608;DHT22;32330;51.936;7.184;2023-08-06T10:16:01;21.40;1.00
46608;DHT22;32330;51.936;7.184;2023-08-06T10:18:29;21.60;1.00
46608;DHT22;32330;51.936;7.184;2023-08-06T10:20:57;21.70;1.00
46608;DHT22;32330;51.936;7.184;2023-08-06T10:23:33;21.70;1.00
46608;DHT22;32330;51.936;7.184;2023-08-06T10:26:02;21.60;1.00
46608;DHT22;32330;51.936;7.184;2023-08-06T10:28:34;21.60;1.00
46608;DHT22;32330;51.936;7.184;2023-08-06T10:31:02;21.70;1.00
46608;DHT22;32330;51.936;7.184;2023-08-06T10:33:40;21.70;1.00
46608;DHT22;32330;51.936;7.184;2023-08-06T10:36:09;21.90;1.00
46608;DHT22;32330;51.936;7.184;2023-08-06T10:38:44;22.20;1.00
46608;DHT22;32330;51.936;7.184;2023-08-06T10:41:22;22.40;1.00
46608;DHT22;32330;51.936;7.184;2023-08-06T10:43:49;22.60;1.00
46608;DHT22;32330;51.936;7.184;2023-08-06T10:46:27;22.90;99.90
46608;DHT22;32330;51.936;7.184;2023-08-06T10:48:54;23.30;99.90
46608;DHT22;32330;51.936;7.184;2023-08-06T10:51:21;23.30;99.90
46608;DHT22;32330;51.936;7.184;2023-08-06T10:53:49;22.50;99.90
46608;DHT22;32330;51.936;7.184;2023-08-06T10:56:19;22.70;99.90
46608;DHT22;32330;51.936;7.184;2023-08-06T10:58:48;22.90;99.90
46608;DHT22;32330;51.936;7.184;2023-08-06T11:01:16;22.80;54.80
46608;DHT22;32330;51.936;7.184;2023-08-06T11:03:45;23.00;99.90
46608;DHT22;32330;51.936;7.184;2023-08-06T11:06:17;23.30;99.90
46608;DHT22;32330;51.936;7.184;2023-08-06T11:08:47;23.30;99.90
46608;DHT22;32330;51.936;7.184;2023-08-06T11:11:16;23.80;99.90
46608;DHT22;32330;51.936;7.184;2023-08-06T11:13:46;24.00;99.90
46608;DHT22;32330;51.936;7.184;2023-08-06T11:16:14;24.00;1.00
46608;DHT22;32330;51.936;7.184;2023-08-06T11:18:42;23.90;1.00
46608;DHT22;32330;51.936;7.184;2023-08-06T11:21:09;23.50;99.90
46608;DHT22;32330;51.936;7.184;2023-08-06T11:23:37;23.40;99.90
46608;DHT22;32330;51.936;7.184;2023-08-06T11:26:04;23.50;99.90
46608;DHT22;32330;51.936;7.184;2023-08-06T11:28:32;23.40;99.90
46608;DHT22;32330;51.936;7.184;2023-08-06T11:31:00;22.90;99.90
46608;DHT22;32330;51.936;7.184;2023-08-06T11:33:29;22.80;99.90
46608;DHT22;32330;51.936;7.184;2023-08-06T11:35:58;22.70;99.90
46608;DHT22;32330;51.936;7.184;2023-08-06T11:38:25;22.50;99.90
46608;DHT22;32330;51.936;7.184;2023-08-06T11:40:53;22.40;99.90
46608;DHT22;32330;51.936;7.184;2023-08-06T11:43:20;22.30;99.90
46608;DHT22;32330;51.936;7.184;2023-08-06T11:45:48;22.20;99.90
46608;DHT22;32330;51.936;7.184;2023-08-06T11:48:17;21.90;99.90
46608;DHT22;32330;51.936;7.184;2023-08-06T11:50:44;21.80;1.00
46608;DHT22;32330;51.936;7.184;2023-08-06T11:53:13;21.70;99.90
46608;DHT22;32330;51.936;7.184;2023-08-06T11:55:40;21.50;1.00
46608;DHT22;32330;51.936;7.184;2023-08-06T11:58:09;21.40;1.00
46608;DHT22;32330;51.936;7.184;2023-08-06T12:00:36;21.70;1.00
46608;DHT22;32330;51.936;7.184;2023-08-06T12:03:05;21.70;30.20
46608;DHT22;32330;51.936;7.184;2023-08-06T12:05:33;21.90;99.90
46608;DHT22;32330;51.936;7.184;2023-08-06T12:08:02;21.90;99.90
46608;DHT22;32330;51.936;7.184;2023-08-06T12:10:31;22.00;99.90
46608;DHT22;32330;51.936;7.184;2023-08-06T12:12:59;21.90;99.90
46608;DHT22;32330;51.936;7.184;2023-08-06T12:15:26;21.80;10.10
46608;DHT22;32330;51.936;7.184;2023-08-06T12:17:53;21.80;99.90
46608;DHT22;32330;51.936;7.184;2023-08-06T12:20:20;21.90;75.40
46608;DHT22;32330;51.936;7.184;2023-08-06T12:22:48;21.90;99.90
46608;DHT22;32330;51.936;7.184;2023-08-06T12:25:15;22.20;99.90
46608;DHT22;32330;51.936;7.184;2023-08-06T12:27:43;22.40;99.90
46608;DHT22;32330;51.936;7.184;2023-08-06T12:30:19;22.20;86.30
46608;DHT22;32330;51.936;7.184;2023-08-06T12:32:46;22.60;74.00
46608;DHT22;32330;51.936;7.184;2023-08-06T12:35:14;22.70;99.90
46608;DHT22;32330;51.936;7.184;2023-08-06T12:37:41;22.90;43.80
46608;DHT22;32330;51.936;7.184;2023-08-06T12:40:10;23.00;1.00
46608;DHT22;32330;51.936;7.184;2023-08-06T12:42:37;22.80;99.90
46608;DHT22;32330;51.936;7.184;2023-08-06T12:45:04;22.80;99.90
46608;DHT22;32330;51.936;7.184;2023-08-06T12:47:33;23.00;99.90
46608;DHT22;32330;51.936;7.184;2023-08-06T12:50:00;23.40;65.10
46608;DHT22;32330;51.936;7.184;2023-08-06T12:52:27;23.40;19.20
46608;DHT22;32330;51.936;7.184;2023-08-06T12:54:54;23.80;99.90
46608;DHT22;32330;51.936;7.184;2023-08-06T12:57:21;24.40;99.90
46608;DHT22;32330;51.936;7.184;2023-08-06T12:59:48;24.00;1.00
46608;DHT22;32330;51.936;7.184;2023-08-06T13:02:15;23.40;1.00
46608;DHT22;32330;51.936;7.184;2023-08-06T13:04:45;23.10;99.90
46608;DHT22;32330;51.936;7.184;2023-08-06T13:07:13;23.00;99.90
46608;DHT22;32330;51.936;7.184;2023-08-06T13:09:40;22.70;99.90
46608;DHT22;32330;51.936;7.184;2023-08-06T13:12:07;22.40;99.90
46608;DHT22;32330;51.936;7.184;2023-08-06T13:14:34;22.00;99.90
46608;DHT22;32330;51.936;7.184;2023-08-06T13:17:01;22.00;99.90
46608;DHT22;32330;51.936;7.184;2023-08-06T13:19:32;21.80;99.90
46608;DHT22;32330;51.936;7.184;2023-08-06T13:22:03;21.80;99.90
46608;DHT22;32330;51.936;7.184;2023-08-06T13:24:36;21.70;18.20
46608;DHT22;32330;51.936;7.184;2023-08-06T13:27:04;21.40;72.60
46608;DHT22;32330;51.936;7.184;2023-08-06T13:29:34;21.40;99.90
46608;DHT22;32330;51.936;7.184;2023-08-06T13:32:01;21.30;98.90
46608;DHT22;32330;51.936;7.184;2023-08-06T13:34:28;21.10;36.00
46608;DHT22;32330;51.936;7.184;2023-08-06T13:36:55;21.10;99.90
46608;DHT22;32330;51.936;7.184;2023-08-06T13:39:23;20.90;99.90
46608;DHT22;32330;51.936;7.184;2023-08-06T13:41:51;20.80;99.90
46608;DHT22;32330;51.936;7.184;2023-08-06T13:44:18;20.60;99.90
46608;DHT22;32330;51.936;7.184;2023-08-06T13:46:45;20.20;99.90
46608;DHT22;32330;51.936;7.184;2023-08-06T13:49:12;19.80;99.90
46608;DHT22;32330;51.936;7.184;2023-08-06T13:51:39;19.80;99.90
46608;DHT22;32330;51.936;7.184;2023-08-06T13:54:06;19.70;99.90
46608;DHT22;32330;51.936;7.184;2023-08-06T13:56:34;19.80;99.90
46608;DHT22;32330;51.936;7.184;2023-08-06T13:59:03;19.70;1.00
46608;DHT22;32330;51.936;7.184;2023-08-06T14:01:31;19.80;1.00
46608;DHT22;32330;51.936;7.184;2023-08-06T14:03:58;19.70;1.00
46608;DHT22;32330;51.936;7.184;2023-08-06T14:06:25;19.60;1.80
46608;DHT22;32330;51.936;7.184;2023-08-06T14:08:52;19.50;11.60
46608;DHT22;32330;51.936;7.184;2023-08-06T14:11:19;19.50;17.60
46608;DHT22;32330;51.936;7.184;2023-08-06T14:13:47;19.30;22.80
46608;DHT22;32330;51.936;7.184;2023-08-06T14:16:15;19.30;26.40
46608;DHT22;32330;51.936;7.184;2023-08-06T14:18:42;19.00;26.30
46608;DHT22;32330;51.936;7.184;2023-08-06T14:21:09;19.00;35.40
46608;DHT22;32330;51.936;7.184;2023-08-06T14:23:36;18.90;37.20
46608;DHT22;32330;51.936;7.184;2023-08-06T14:26:03;19.10;44.80
46608;DHT22;32330;51.936;7.184;2023-08-06T14:28:30;18.80;48.40
46608;DHT22;32330;51.936;7.184;2023-08-06T14:30:59;18.90;57.70
46608;DHT22;32330;51.936;7.184;2023-08-06T14:33:26;19.00;57.40
46608;DHT22;32330;51.936;7.184;2023-08-06T14:35:56;19.10;50.80
46608;DHT22;32330;51.936;7.184;2023-08-06T14:38:23;19.10;54.70
46608;DHT22;32330;51.936;7.184;2023-08-06T14:40:50;19.00;46.30
46608;DHT22;32330;51.936;7.184;2023-08-06T14:43:21;19.20;49.10
46608;DHT22;32330;51.936;7.184;2023-08-06T14:45:49;19.40;45.00
46608;DHT22;32330;51.936;7.184;2023-08-06T14:48:17;19.50;36.50
46608;DHT22;32330;51.936;7.184;2023-08-06T14:50:46;19.70;40.00
46608;DHT22;32330;51.936;7.184;2023-08-06T14:53:13;19.80;30.40
46608;DHT22;32330;51.936;7.184;2023-08-06T14:55:41;19.90;20.00
46608;DHT22;32330;51.936;7.184;2023-08-06T14:58:08;19.90;19.50
46608;DHT22;32330;51.936;7.184;2023-08-06T15:00:35;20.10;11.30
46608;DHT22;32330;51.936;7.184;2023-08-06T15:03:02;20.20;8.10
46608;DHT22;32330;51.936;7.184;2023-08-06T15:05:31;19.90;11.40
46608;DHT22;32330;51.936;7.184;2023-08-06T15:07:58;20.00;16.60
46608;DHT22;32330;51.936;7.184;2023-08-06T15:10:25;19.70;26.40
46608;DHT22;32330;51.936;7.184;2023-08-06T15:12:52;19.70;30.40
46608;DHT22;32330;51.936;7.184;2023-08-06T15:15:19;19.60;51.00
46608;DHT22;32330;51.936;7.184;2023-08-06T15:17:47;19.20;59.70
46608;DHT22;32330;51.936;7.184;2023-08-06T15:20:14;19.10;80.50
46608;DHT22;32330;51.936;7.184;2023-08-06T15:22:43;19.10;76.40
46608;DHT22;32330;51.936;7.184;2023-08-06T15:25:10;18.90;83.80
46608;DHT22;32330;51.936;7.184;2023-08-06T15:27:37;18.70;81.10
46608;DHT22;32330;51.936;7.184;2023-08-06T15:30:07;18.50;80.40
46608;DHT22;32330;51.936;7.184;2023-08-06T15:32:34;18.40;94.10
46608;DHT22;32330;51.936;7.184;2023-08-06T15:35:01;18.40;95.10
46608;DHT22;32330;51.936;7.184;2023-08-06T15:37:29;18.60;94.00
46608;DHT22;32330;51.936;7.184;2023-08-06T15:39:58;18.50;92.70